createdAt,value
2022-10-04T00:01:47.581Z,9.85
2022-10-04T00:04:25.759Z,9.35
2022-10-04T00:07:12.873Z,8.88
2022-10-04T00:09:54.670Z,10.17
2022-10-04T00:12:31.147Z,9.45
2022-10-04T00:15:02.156Z,7.20
2022-10-04T00:17:35.457Z,6.80
2022-10-04T00:20:23.846Z,7.32
2022-10-04T00:23:28.753Z,7.93
2022-10-04T00:26:03.170Z,8.40
2022-10-04T00:28:36.005Z,8.18
2022-10-04T00:31:13.809Z,7.05
2022-10-04T00:33:47.992Z,6.22
2022-10-04T00:36:24.138Z,6.40
2022-10-04T00:39:09.516Z,7.32
2022-10-04T00:41:56.526Z,6.15
2022-10-04T00:44:56.858Z,7.18
2022-10-04T00:47:55.931Z,5.35
2022-10-04T00:50:52.097Z,5.15
2022-10-04T00:53:40.419Z,7.00
2022-10-04T00:56:30.725Z,6.45
2022-10-04T00:58:57.666Z,6.20
2022-10-04T01:01:28.787Z,5.63
2022-10-04T01:03:58.326Z,6.25
2022-10-04T01:06:26.375Z,6.45
2022-10-04T01:08:56.930Z,6.28
2022-10-04T01:11:30.114Z,6.47
2022-10-04T01:14:08.603Z,6.78
2022-10-04T01:16:37.149Z,5.70
2022-10-04T01:19:22.274Z,4.82
2022-10-04T01:22:16.763Z,5.00
2022-10-04T01:24:45.147Z,4.72
2022-10-04T01:27:30.733Z,3.67
2022-10-04T01:29:58.941Z,4.50
2022-10-04T01:32:26.163Z,4.72
2022-10-04T01:34:53.281Z,4.82
2022-10-04T01:37:20.262Z,5.13
2022-10-04T01:39:47.413Z,6.05
2022-10-04T01:42:27.385Z,5.25
2022-10-04T01:45:10.685Z,4.43
2022-10-04T01:48:00.882Z,6.15
2022-10-04T01:50:37.939Z,5.13
2022-10-04T01:53:18.249Z,4.57
2022-10-04T01:55:50.902Z,4.95
2022-10-04T01:58:28.058Z,4.28
2022-10-04T02:01:01.941Z,4.60
2022-10-04T02:03:42.702Z,6.53
2022-10-04T02:06:13.392Z,4.70
2022-10-04T02:08:50.061Z,4.97
2022-10-04T02:11:20.391Z,4.63
2022-10-04T02:13:50.600Z,4.55
2022-10-04T02:16:18.503Z,4.22
2022-10-04T02:18:46.325Z,4.78
2022-10-04T02:21:15.953Z,4.50
2022-10-04T02:23:43.589Z,4.15
2022-10-04T02:26:11.806Z,5.38
2022-10-04T02:28:40.591Z,4.35
2022-10-04T02:31:27.519Z,6.25
2022-10-04T02:33:58.113Z,6.55
2022-10-04T02:36:28.607Z,5.80
2022-10-04T02:39:06.056Z,7.22
2022-10-04T02:41:39.576Z,7.85
2022-10-04T02:44:18.273Z,8.02
2022-10-04T02:46:54.605Z,8.45
2022-10-04T02:49:35.277Z,7.70
2022-10-04T02:52:20.363Z,8.63
2022-10-04T02:54:56.434Z,7.20
2022-10-04T02:57:24.470Z,7.20
2022-10-04T03:00:01.668Z,8.68
2022-10-04T03:02:31.018Z,7.50
2022-10-04T03:05:07.428Z,7.07
2022-10-04T03:07:36.891Z,7.40
2022-10-04T03:10:11.069Z,7.43
2022-10-04T03:12:40.586Z,7.38
2022-10-04T03:15:12.929Z,8.20
2022-10-04T03:17:43.979Z,6.90
2022-10-04T03:20:16.310Z,6.93
2022-10-04T03:22:47.131Z,6.60
2022-10-04T03:25:45.200Z,7.43
2022-10-04T03:28:12.484Z,7.35
2022-10-04T03:30:47.583Z,5.95
2022-10-04T03:33:20.966Z,8.27
2022-10-04T03:35:55.188Z,8.25
2022-10-04T03:38:24.064Z,6.93
2022-10-04T03:40:56.747Z,7.40
2022-10-04T03:43:28.770Z,8.00
2022-10-04T03:45:56.864Z,7.82
2022-10-04T03:48:46.604Z,7.28
2022-10-04T03:51:23.649Z,7.50
2022-10-04T03:53:54.555Z,6.85
2022-10-04T03:56:31.773Z,7.28
2022-10-04T03:58:59.628Z,8.10
2022-10-04T04:01:42.908Z,7.32
2022-10-04T04:04:37.674Z,6.15
2022-10-04T04:07:14.650Z,6.38
2022-10-04T04:09:46.495Z,7.35
2022-10-04T04:12:43.888Z,6.00
2022-10-04T04:15:12.453Z,6.38
2022-10-04T04:17:41.628Z,6.05
2022-10-04T04:20:26.417Z,5.80
2022-10-04T04:23:19.365Z,7.60
2022-10-04T04:25:54.714Z,6.40
2022-10-04T04:28:31.329Z,7.25
2022-10-04T04:31:14.451Z,7.85
2022-10-04T04:33:59.402Z,7.65
2022-10-04T04:36:28.562Z,8.13
2022-10-04T04:39:45.280Z,8.30
2022-10-04T04:42:15.195Z,9.10
2022-10-04T04:44:54.217Z,8.07
2022-10-04T04:47:42.064Z,7.68
2022-10-04T04:50:16.147Z,6.70
2022-10-04T04:53:05.660Z,7.85
2022-10-04T04:56:02.242Z,7.40
2022-10-04T04:58:43.461Z,8.30
2022-10-04T05:01:24.203Z,9.48
2022-10-04T05:04:15.372Z,7.65
2022-10-04T05:06:48.617Z,7.15
2022-10-04T05:09:30.335Z,7.20
2022-10-04T05:12:07.652Z,7.10
2022-10-04T05:17:04.095Z,6.18
2022-10-04T05:19:34.204Z,5.97
2022-10-04T05:22:12.748Z,5.57
2022-10-04T05:24:48.493Z,6.20
2022-10-04T05:27:37.834Z,6.80
2022-10-04T05:30:23.006Z,8.10
2022-10-04T05:33:03.369Z,7.50
2022-10-04T05:35:43.007Z,6.45
2022-10-04T05:38:16.513Z,6.35
2022-10-04T05:41:01.173Z,6.30
2022-10-04T05:43:36.090Z,6.05
2022-10-04T05:46:22.930Z,6.30
2022-10-04T05:48:54.858Z,7.38
2022-10-04T05:51:34.085Z,6.53
2022-10-04T05:54:03.338Z,6.22
2022-10-04T05:56:47.270Z,6.95
2022-10-04T05:59:20.449Z,5.53
2022-10-04T06:02:07.606Z,6.60
2022-10-04T06:05:12.392Z,5.65
2022-10-04T06:08:17.473Z,6.20
2022-10-04T06:10:52.791Z,6.75
2022-10-04T06:13:52.072Z,7.00
2022-10-04T06:16:52.744Z,5.85
2022-10-04T06:19:19.774Z,7.03
2022-10-04T06:24:26.190Z,6.60
2022-10-04T06:27:14.914Z,6.40
2022-10-04T06:30:00.607Z,6.90
2022-10-04T06:33:05.628Z,6.18
2022-10-04T06:36:00.300Z,5.38
2022-10-04T06:38:40.813Z,6.13
2022-10-04T06:41:43.251Z,5.95
2022-10-04T06:44:57.915Z,6.20
2022-10-04T06:47:46.105Z,5.55
2022-10-04T06:50:42.739Z,4.85
2022-10-04T06:53:22.381Z,4.35
2022-10-04T06:56:24.327Z,4.50
2022-10-04T06:59:11.122Z,4.88
2022-10-04T07:01:50.790Z,5.10
2022-10-04T07:04:17.841Z,5.55
2022-10-04T07:09:28.033Z,7.68
2022-10-04T07:12:00.710Z,7.53
2022-10-04T07:14:38.949Z,7.15
2022-10-04T07:17:15.619Z,7.93
2022-10-04T07:19:47.468Z,8.15
2022-10-04T07:22:31.081Z,7.05
2022-10-04T07:25:22.285Z,9.32
2022-10-04T07:28:28.955Z,10.05
2022-10-04T07:31:21.265Z,9.13
2022-10-04T07:33:54.070Z,8.40
2022-10-04T07:36:46.932Z,10.13
2022-10-04T07:39:48.177Z,9.68
2022-10-04T07:42:39.274Z,10.70
2022-10-04T07:45:22.204Z,11.75
2022-10-04T07:47:50.081Z,10.23
2022-10-04T07:50:30.431Z,9.88
2022-10-04T07:53:42.749Z,9.40
2022-10-04T07:56:19.218Z,10.90
2022-10-04T07:59:20.368Z,10.33
2022-10-04T08:01:53.494Z,8.25
2022-10-04T08:04:32.585Z,6.82
2022-10-04T08:06:59.438Z,6.45
2022-10-04T08:09:47.559Z,7.70
2022-10-04T08:15:14.347Z,6.13
2022-10-04T08:18:01.982Z,6.35
2022-10-04T08:20:50.295Z,5.25
2022-10-04T08:23:29.357Z,3.83
2022-10-04T08:26:21.280Z,4.53
2022-10-04T08:29:06.883Z,3.35
2022-10-04T08:31:51.410Z,4.90
2022-10-04T08:34:29.225Z,5.03
2022-10-04T08:37:09.596Z,5.15
2022-10-04T08:40:16.344Z,5.18
2022-10-04T08:43:08.462Z,4.93
2022-10-04T08:46:12.986Z,4.53
2022-10-04T08:49:08.052Z,5.35
2022-10-04T08:51:40.716Z,4.28
2022-10-04T08:54:20.056Z,4.20
2022-10-04T08:57:16.040Z,6.03
2022-10-04T09:00:13.683Z,6.45
2022-10-04T09:03:11.174Z,6.90
2022-10-04T09:05:41.183Z,6.13
2022-10-04T09:08:47.185Z,6.05
2022-10-04T09:11:33.059Z,6.00
2022-10-04T09:14:02.845Z,6.90
2022-10-04T09:16:55.302Z,6.85
2022-10-04T09:19:22.227Z,8.38
2022-10-04T09:24:43.281Z,6.95
2022-10-04T09:27:53.130Z,7.70
2022-10-04T09:30:15.285Z,6.72
2022-10-04T09:32:48.526Z,6.15
2022-10-04T09:35:43.225Z,6.38
2022-10-04T09:38:15.962Z,5.75
2022-10-04T09:41:06.328Z,5.35
2022-10-04T09:44:00.392Z,6.25
2022-10-04T09:46:47.528Z,5.38
2022-10-04T09:49:37.934Z,5.40
2022-10-04T09:52:44.212Z,4.72
2022-10-04T09:55:23.123Z,4.90
2022-10-04T09:58:06.088Z,4.75
2022-10-04T10:00:45.591Z,4.82
2022-10-04T10:03:35.458Z,5.10
2022-10-04T10:06:36.715Z,5.22
2022-10-04T10:09:49.222Z,5.13
2022-10-04T10:13:08.293Z,5.05
2022-10-04T10:15:42.235Z,5.95
2022-10-04T10:18:36.588Z,5.93
2022-10-04T10:21:40.889Z,4.95
2022-10-04T10:24:57.440Z,5.68
2022-10-04T10:27:41.589Z,5.82
2022-10-04T10:30:36.055Z,5.85
2022-10-04T10:33:40.139Z,6.88
2022-10-04T10:36:27.299Z,6.22
2022-10-04T10:38:55.029Z,6.47
2022-10-04T10:41:58.979Z,6.75
2022-10-04T10:44:29.814Z,7.95
2022-10-04T10:47:31.670Z,7.82
2022-10-04T10:50:55.768Z,6.35
2022-10-04T10:53:59.171Z,6.93
2022-10-04T10:57:06.864Z,7.43
2022-10-04T10:59:50.508Z,5.80
2022-10-04T11:02:52.867Z,6.32
2022-10-04T11:05:35.174Z,6.50
2022-10-04T11:08:22.389Z,7.70
2022-10-04T11:11:13.800Z,7.20
2022-10-04T11:13:59.685Z,6.30
2022-10-04T11:16:51.337Z,6.40
2022-10-04T11:20:26.073Z,6.18
2022-10-04T11:23:34.710Z,5.97
2022-10-04T11:26:26.236Z,5.50
2022-10-04T11:29:31.225Z,6.30
2022-10-04T11:32:01.471Z,5.53
2022-10-04T11:34:57.911Z,7.43
2022-10-04T11:38:04.172Z,6.30
2022-10-04T11:40:42.806Z,5.75
2022-10-04T11:43:26.420Z,6.35
2022-10-04T11:46:27.171Z,6.25
2022-10-04T11:49:06.222Z,6.35
2022-10-04T11:51:58.668Z,6.57
2022-10-04T11:54:31.812Z,6.03
2022-10-04T11:57:15.894Z,5.80
2022-10-04T12:00:00.948Z,5.57
2022-10-04T12:03:09.450Z,5.80
2022-10-04T12:06:03.749Z,5.50
2022-10-04T12:08:50.510Z,6.93
2022-10-04T12:11:49.551Z,5.80
2022-10-04T12:14:34.929Z,6.03
2022-10-04T12:17:46.124Z,5.38
2022-10-04T12:20:53.192Z,6.32
2022-10-04T12:23:38.094Z,6.05
2022-10-04T12:26:19.363Z,6.72
2022-10-04T12:28:52.563Z,6.45
2022-10-04T12:31:42.066Z,5.07
2022-10-04T12:34:15.221Z,5.45
2022-10-04T12:37:13.934Z,6.53
2022-10-04T12:39:55.805Z,6.43
2022-10-04T12:42:41.277Z,5.68
2022-10-04T12:45:38.680Z,5.90
2022-10-04T12:48:27.982Z,5.93
2022-10-04T12:51:16.179Z,5.90
2022-10-04T12:54:11.455Z,5.88
2022-10-04T12:56:47.188Z,5.65
2022-10-04T12:59:32.490Z,5.83
2022-10-04T13:02:47.846Z,6.68
2022-10-04T13:05:27.615Z,6.45
2022-10-04T13:08:06.968Z,5.75
2022-10-04T13:10:37.177Z,5.30
2022-10-04T13:13:14.382Z,6.18
2022-10-04T13:19:50.494Z,5.25
2022-10-04T13:22:57.386Z,6.72
2022-10-04T13:25:39.322Z,6.00
2022-10-04T13:28:13.467Z,7.13
2022-10-04T13:31:10.384Z,6.82
2022-10-04T13:34:07.993Z,6.00
2022-10-04T13:36:43.895Z,5.00
2022-10-04T13:39:46.849Z,5.93
2022-10-04T13:42:31.859Z,6.93
2022-10-04T13:45:10.526Z,6.35
2022-10-04T13:48:21.529Z,6.88
2022-10-04T13:51:21.590Z,5.93
2022-10-04T13:54:30.727Z,5.75
2022-10-04T13:57:29.725Z,6.20
2022-10-04T14:00:14.967Z,4.68
2022-10-04T14:03:23.405Z,5.63
2022-10-04T14:06:13.193Z,6.60
2022-10-04T14:09:14.338Z,6.45
2022-10-04T14:11:53.064Z,5.95
2022-10-04T14:14:39.650Z,5.57
2022-10-04T14:17:24.778Z,5.32
2022-10-04T14:20:20.264Z,5.80
2022-10-04T14:22:59.284Z,5.85
2022-10-04T14:25:52.223Z,5.68
2022-10-04T14:28:44.386Z,6.97
2022-10-04T14:31:47.117Z,6.20
2022-10-04T14:35:01.442Z,6.32
2022-10-04T14:37:53.240Z,6.05
2022-10-04T14:40:44.557Z,6.40
2022-10-04T14:43:37.324Z,7.07
2022-10-04T14:46:23.067Z,6.80
2022-10-04T14:49:34.280Z,6.30
2022-10-04T14:52:14.454Z,8.70
2022-10-04T14:55:26.154Z,6.93
2022-10-04T14:58:22.974Z,6.70
2022-10-04T15:00:59.709Z,8.15
2022-10-04T15:03:39.092Z,8.10
2022-10-04T15:06:13.622Z,7.18
2022-10-04T15:09:17.702Z,6.68
2022-10-04T15:12:58.637Z,8.15
2022-10-04T15:15:14.338Z,6.72
2022-10-04T15:17:55.584Z,6.10
2022-10-04T15:20:50.492Z,5.18
2022-10-04T15:23:42.810Z,5.75
2022-10-04T15:26:18.867Z,5.10
2022-10-04T15:28:54.800Z,4.95
2022-10-04T15:31:42.669Z,7.15
2022-10-04T15:34:59.385Z,6.85
2022-10-04T15:37:58.575Z,7.90
2022-10-04T15:40:30.407Z,6.93
2022-10-04T15:43:01.456Z,7.18
2022-10-04T15:45:52.881Z,6.50
2022-10-04T15:48:51.694Z,10.30
2022-10-04T15:51:44.048Z,10.35
2022-10-04T15:54:37.193Z,10.45
2022-10-04T15:57:32.097Z,11.93
2022-10-04T16:00:08.361Z,11.50
2022-10-04T16:03:21.883Z,11.73
2022-10-04T16:06:00.796Z,13.23
2022-10-04T16:09:21.228Z,11.65
2022-10-04T16:12:22.058Z,13.02
2022-10-04T16:15:07.847Z,13.23
2022-10-04T16:17:47.690Z,14.23
2022-10-04T16:20:28.063Z,14.80
2022-10-04T16:23:26.496Z,15.13
2022-10-04T16:25:56.173Z,14.93
2022-10-04T16:28:30.168Z,15.18
2022-10-04T16:31:20.123Z,16.10
2022-10-04T16:34:09.438Z,15.00
2022-10-04T16:37:14.473Z,14.80
2022-10-04T16:39:59.323Z,15.20
2022-10-04T16:42:44.887Z,16.13
2022-10-04T16:45:12.289Z,17.15
2022-10-04T16:47:56.831Z,13.77
2022-10-04T16:51:01.846Z,11.05
2022-10-04T16:54:14.585Z,11.95
2022-10-04T16:56:57.302Z,14.90
2022-10-04T16:59:41.744Z,15.27
2022-10-04T17:02:23.738Z,13.32
2022-10-04T17:04:56.417Z,15.02
2022-10-04T17:07:52.349Z,15.95
2022-10-04T17:10:51.966Z,15.82
2022-10-04T17:13:36.330Z,16.23
2022-10-04T17:16:18.037Z,17.63
2022-10-04T17:19:13.094Z,15.48
2022-10-04T17:22:04.255Z,14.40
2022-10-04T17:24:40.593Z,15.27
2022-10-04T17:27:21.528Z,11.00
2022-10-04T17:30:21.937Z,10.23
2022-10-04T17:32:48.941Z,15.60
2022-10-04T17:38:04.326Z,15.18
2022-10-04T17:40:42.953Z,14.52
2022-10-04T17:43:34.777Z,14.68
2022-10-04T17:46:24.043Z,16.13
2022-10-04T17:49:33.194Z,16.63
2022-10-04T17:52:22.854Z,17.63
2022-10-04T17:55:14.185Z,16.02
2022-10-04T17:58:01.906Z,19.75
2022-10-04T18:00:57.920Z,17.88
2022-10-04T18:03:54.585Z,19.33
2022-10-04T18:06:30.131Z,19.25
2022-10-04T18:09:10.811Z,20.25
2022-10-04T18:11:58.557Z,18.83
2022-10-04T18:14:47.692Z,19.30
2022-10-04T18:17:45.267Z,17.42
2022-10-04T18:20:20.614Z,16.90
2022-10-04T18:22:58.782Z,17.67
2022-10-04T18:25:29.071Z,15.93
2022-10-04T18:28:08.236Z,13.93
2022-10-04T18:30:54.085Z,14.68
2022-10-04T18:33:26.669Z,13.98
2022-10-04T18:36:01.289Z,11.05
2022-10-04T18:38:29.437Z,13.52
2022-10-04T18:40:58.536Z,11.98
2022-10-04T18:44:04.720Z,11.98
2022-10-04T18:46:40.413Z,10.50
2022-10-04T18:49:25.719Z,11.02
2022-10-04T18:52:11.401Z,9.10
2022-10-04T18:55:06.292Z,10.40
2022-10-04T18:57:56.106Z,8.35
2022-10-04T19:00:42.587Z,9.13
2022-10-04T19:03:22.266Z,8.00
2022-10-04T19:05:58.254Z,8.15
2022-10-04T19:08:43.869Z,7.47
2022-10-04T19:11:22.169Z,6.32
2022-10-04T19:14:11.655Z,8.00
2022-10-04T19:16:56.624Z,9.13
2022-10-04T19:19:26.740Z,6.90
2022-10-04T19:22:29.010Z,7.50
2022-10-04T19:25:17.345Z,6.55
2022-10-04T19:27:57.066Z,6.05
2022-10-04T19:30:50.810Z,6.07
2022-10-04T19:33:22.233Z,4.82
2022-10-04T19:36:19.457Z,3.95
2022-10-04T19:39:27.671Z,3.70
2022-10-04T19:42:04.617Z,3.28
2022-10-04T19:44:52.080Z,2.60
2022-10-04T19:47:36.143Z,2.90
2022-10-04T19:50:18.393Z,2.28
2022-10-04T19:53:14.610Z,2.53
2022-10-04T19:56:00.993Z,2.50
2022-10-04T19:58:40.747Z,2.65
2022-10-04T20:01:23.815Z,2.60
2022-10-04T20:04:12.410Z,2.35
2022-10-04T20:06:56.739Z,2.58
2022-10-04T20:09:29.744Z,3.13
2022-10-04T20:11:57.095Z,2.83
2022-10-04T20:14:27.022Z,3.20
2022-10-04T20:16:57.479Z,5.50
2022-10-04T20:19:27.470Z,2.55
2022-10-04T20:22:14.364Z,2.80
2022-10-04T20:24:41.045Z,2.63
2022-10-04T20:29:39.021Z,2.60
2022-10-04T20:32:07.107Z,2.67
2022-10-04T20:34:37.200Z,2.65
2022-10-04T20:37:06.578Z,2.50
2022-10-04T20:39:43.397Z,2.47
2022-10-04T20:42:19.861Z,2.22
2022-10-04T20:44:54.279Z,2.38
2022-10-04T20:47:41.689Z,2.10
2022-10-04T20:50:32.302Z,1.75
2022-10-04T20:53:04.029Z,1.90
2022-10-04T20:55:36.413Z,1.73
2022-10-04T20:58:20.785Z,1.75
2022-10-04T21:01:16.818Z,1.77
2022-10-04T21:03:44.064Z,1.40
2022-10-04T21:06:12.035Z,1.98
2022-10-04T21:08:39.584Z,2.15
2022-10-04T21:11:09.602Z,1.67
2022-10-04T21:13:59.184Z,1.88
2022-10-04T21:16:38.930Z,1.90
2022-10-04T21:19:35.660Z,2.05
2022-10-04T21:22:06.387Z,1.58
2022-10-04T21:24:42.053Z,1.88
2022-10-04T21:27:11.862Z,1.73
2022-10-04T21:29:39.415Z,1.42
2022-10-04T21:32:06.930Z,1.63
2022-10-04T21:34:52.361Z,1.80
2022-10-04T21:37:20.787Z,1.30
2022-10-04T21:39:47.894Z,1.50
2022-10-04T21:42:14.880Z,1.15
2022-10-04T21:44:41.691Z,1.35
2022-10-04T21:49:35.846Z,1.60
2022-10-04T21:52:02.723Z,1.75
2022-10-04T21:54:29.980Z,1.10
2022-10-04T21:56:56.898Z,1.40
2022-10-04T22:01:51.625Z,1.65
2022-10-04T22:04:18.978Z,1.38
2022-10-04T22:06:46.242Z,1.08
2022-10-04T22:09:13.611Z,1.63
2022-10-04T22:11:40.558Z,0.75
2022-10-04T22:14:07.579Z,1.00
2022-10-04T22:16:34.519Z,1.38
2022-10-04T22:21:28.353Z,1.83
2022-10-04T22:23:55.976Z,1.02
2022-10-04T22:26:25.734Z,1.60
2022-10-04T22:28:54.986Z,1.15
2022-10-04T22:31:27.446Z,0.80
2022-10-04T22:33:55.740Z,1.33
2022-10-04T22:36:37.757Z,0.90
2022-10-04T22:39:14.312Z,0.80
2022-10-04T22:41:45.531Z,1.05
2022-10-04T22:44:14.763Z,1.20
2022-10-04T22:46:45.406Z,1.25
2022-10-04T22:49:15.414Z,0.88
2022-10-04T22:51:44.385Z,1.15
2022-10-04T22:54:17.167Z,1.08
2022-10-04T22:56:44.380Z,1.00
2022-10-04T22:59:13.653Z,0.82
2022-10-04T23:01:40.659Z,1.00
2022-10-04T23:04:25.722Z,0.90
2022-10-04T23:06:53.784Z,0.77
2022-10-04T23:09:21.075Z,0.60
2022-10-04T23:11:48.091Z,1.02
2022-10-04T23:14:15.078Z,1.00
2022-10-04T23:16:43.137Z,1.30
2022-10-04T23:19:18.792Z,0.80
2022-10-04T23:21:49.427Z,1.05
2022-10-04T23:24:18.018Z,0.80
2022-10-04T23:26:47.859Z,0.70
2022-10-04T23:29:18.755Z,1.40
2022-10-04T23:31:47.420Z,1.25
2022-10-04T23:34:28.831Z,0.70
2022-10-04T23:36:57.093Z,1.08
2022-10-04T23:39:34.811Z,0.93
2022-10-04T23:42:05.223Z,0.60
2022-10-04T23:44:38.032Z,0.70
2022-10-04T23:47:13.728Z,0.60
2022-10-04T23:49:41.729Z,0.90
2022-10-04T23:52:14.825Z,0.80
2022-10-04T23:54:41.854Z,0.70
2022-10-04T23:57:11.243Z,0.60
2022-10-04T23:59:39.831Z,0.75
